CNX101 CYKM-KADG
Flight info
| Callsign | CNX101 |
|---|---|
| Flight time | N/A |
| Altitude | 4000 |
| Route | KEGPA DCT KITOK DCT GADAV |
| Aircraft | C172/L-SFG/C |
Departure
| Time | 2026-04-22 21:32 |
|---|---|
| Airport | Kincardine Municipal Airport (CYKM) |
Arrival
| Time | N/A |
|---|---|
| Airport | Lenawee County Airport (KADG) |
| Time | Latitude | Longitude | Altitude | Speed | Heading |
|---|---|---|---|---|---|
| 2026-04-22 21:27 | 44.19873 | -81.59780 | 758 ft | 0 kts | 352° |
| 2026-04-22 21:29 | 44.19880 | -81.59793 | 758 ft | 1 kts | 274° |
| 2026-04-22 21:29 | 44.19881 | -81.59812 | 758 ft | 0 kts | 271° |
| 2026-04-22 21:30 | 44.19882 | -81.59819 | 759 ft | 5 kts | 283° |
| 2026-04-22 21:30 | 44.19894 | -81.59882 | 759 ft | 8 kts | 267° |
| 2026-04-22 21:30 | 44.19885 | -81.59918 | 758 ft | 0 kts | 216° |
| 2026-04-22 21:30 | 44.19860 | -81.59941 | 758 ft | 8 kts | 214° |
| 2026-04-22 21:31 | 44.19877 | -81.60045 | 759 ft | 28 kts | 297° |
| 2026-04-22 21:31 | 44.20037 | -81.60457 | 774 ft | 63 kts | 302° |
| 2026-04-22 21:31 | 44.20247 | -81.61079 | 866 ft | 73 kts | 298° |
| 2026-04-22 21:31 | 44.20434 | -81.61707 | 1069 ft | 70 kts | 296° |
| 2026-04-22 21:32 | 44.20540 | -81.62377 | 1232 ft | 75 kts | 274° |
| 2026-04-22 21:32 | 44.20259 | -81.63035 | 1359 ft | 91 kts | 219° |
| 2026-04-22 21:32 | 44.19649 | -81.63087 | 1562 ft | 88 kts | 169° |
| 2026-04-22 21:32 | 44.19049 | -81.62778 | 1728 ft | 95 kts | 162° |
| 2026-04-22 21:33 | 44.18438 | -81.62447 | 1932 ft | 93 kts | 162° |
| 2026-04-22 21:33 | 44.17843 | -81.62118 | 2147 ft | 91 kts | 158° |
| 2026-04-22 21:33 | 44.17262 | -81.61787 | 2373 ft | 90 kts | 155° |
| 2026-04-22 21:33 | 44.16719 | -81.61358 | 2631 ft | 89 kts | 139° |
| 2026-04-22 21:34 | 44.16230 | -81.60815 | 2791 ft | 93 kts | 136° |
| 2026-04-22 21:34 | 44.15625 | -81.60621 | 3004 ft | 89 kts | 196° |
| 2026-04-22 21:34 | 44.15001 | -81.60661 | 3339 ft | 90 kts | 193° |
| 2026-04-22 21:34 | 44.14361 | -81.60751 | 3450 ft | 96 kts | 185° |
| 2026-04-22 21:35 | 44.13703 | -81.60847 | 3613 ft | 93 kts | 197° |
| 2026-04-22 21:35 | 44.13042 | -81.60913 | 3845 ft | 95 kts | 193° |
| 2026-04-22 21:35 | 44.12389 | -81.61018 | 4019 ft | 94 kts | 190° |
| 2026-04-22 21:35 | 44.11721 | -81.61108 | 4077 ft | 102 kts | 194° |
| 2026-04-22 21:36 | 44.10954 | -81.61212 | 4086 ft | 121 kts | 194° |
| 2026-04-22 21:36 | 44.10100 | -81.61350 | 4082 ft | 125 kts | 191° |
| 2026-04-22 21:36 | 44.09235 | -81.61468 | 4077 ft | 123 kts | 192° |
| 2026-04-22 21:36 | 44.08414 | -81.61591 | 4071 ft | 118 kts | 189° |
| 2026-04-22 21:37 | 44.07583 | -81.61690 | 4076 ft | 121 kts | 193° |
| 2026-04-22 21:37 | 44.07028 | -81.61771 | 4070 ft | 122 kts | 192° |
| 2026-04-22 21:37 | 44.05900 | -81.61932 | 4068 ft | 123 kts | 192° |
| 2026-04-22 21:37 | 44.05061 | -81.62052 | 4072 ft | 122 kts | 192° |
| 2026-04-22 21:38 | 44.04226 | -81.62169 | 4064 ft | 119 kts | 195° |
| 2026-04-22 21:38 | 44.03391 | -81.62284 | 4070 ft | 122 kts | 192° |
| 2026-04-22 21:38 | 44.02547 | -81.62396 | 4069 ft | 120 kts | 190° |
| 2026-04-22 21:38 | 44.01716 | -81.62519 | 4045 ft | 121 kts | 194° |
| 2026-04-22 21:39 | 44.00895 | -81.62632 | 4063 ft | 118 kts | 193° |
| 2026-04-22 21:39 | 44.00335 | -81.62701 | 4055 ft | 119 kts | 192° |
| 2026-04-22 21:39 | 43.99523 | -81.62841 | 4056 ft | 118 kts | 192° |
| 2026-04-22 21:39 | 43.98724 | -81.62943 | 4069 ft | 115 kts | 193° |
| 2026-04-22 21:40 | 43.97916 | -81.63069 | 4072 ft | 121 kts | 189° |
| 2026-04-22 21:40 | 43.97077 | -81.63171 | 4078 ft | 119 kts | 194° |
| 2026-04-22 21:40 | 43.96252 | -81.63281 | 4054 ft | 116 kts | 192° |
| 2026-04-22 21:40 | 43.95465 | -81.63407 | 4061 ft | 115 kts | 193° |
| 2026-04-22 21:41 | 43.94658 | -81.63524 | 4068 ft | 121 kts | 192° |
| 2026-04-22 21:41 | 43.93815 | -81.63617 | 4069 ft | 121 kts | 194° |
| 2026-04-22 21:41 | 43.92987 | -81.63743 | 4070 ft | 121 kts | 192° |
| 2026-04-22 21:41 | 43.92151 | -81.63853 | 4068 ft | 120 kts | 195° |
| 2026-04-22 21:42 | 43.91314 | -81.63986 | 4066 ft | 122 kts | 193° |
| 2026-04-22 21:42 | 43.90479 | -81.64100 | 4054 ft | 121 kts | 193° |
| 2026-04-22 21:42 | 43.89672 | -81.64209 | 4054 ft | 112 kts | 194° |
| 2026-04-22 21:42 | 43.88888 | -81.64321 | 4057 ft | 115 kts | 194° |
| 2026-04-22 21:43 | 43.88089 | -81.64434 | 4066 ft | 118 kts | 194° |
| 2026-04-22 21:43 | 43.87270 | -81.64547 | 4068 ft | 119 kts | 194° |
| 2026-04-22 21:43 | 43.86449 | -81.64670 | 4051 ft | 118 kts | 192° |
| 2026-04-22 21:43 | 43.85642 | -81.64758 | 4053 ft | 115 kts | 195° |
| 2026-04-22 21:44 | 43.84863 | -81.64879 | 4062 ft | 113 kts | 193° |
| 2026-04-22 21:44 | 43.84079 | -81.64981 | 4071 ft | 111 kts | 196° |
| 2026-04-22 21:44 | 43.83297 | -81.65108 | 4066 ft | 116 kts | 194° |
| 2026-04-22 21:44 | 43.82486 | -81.65219 | 4067 ft | 118 kts | 194° |
| 2026-04-22 21:45 | 43.81665 | -81.65333 | 4068 ft | 119 kts | 193° |
| 2026-04-22 21:45 | 43.80853 | -81.65438 | 4060 ft | 115 kts | 193° |
| 2026-04-22 21:45 | 43.80076 | -81.65569 | 4065 ft | 111 kts | 197° |
| 2026-04-22 21:45 | 43.79287 | -81.65657 | 4078 ft | 115 kts | 194° |
| 2026-04-22 21:46 | 43.78493 | -81.65771 | 4085 ft | 115 kts | 195° |
| 2026-04-22 21:46 | 43.77695 | -81.65885 | 4086 ft | 115 kts | 195° |
| 2026-04-22 21:46 | 43.76883 | -81.65999 | 4075 ft | 120 kts | 195° |
| 2026-04-22 21:46 | 43.76048 | -81.66075 | 4084 ft | 118 kts | 198° |
| 2026-04-22 21:47 | 43.75257 | -81.66241 | 4073 ft | 115 kts | 193° |
| 2026-04-22 21:47 | 43.74457 | -81.66347 | 4087 ft | 119 kts | 194° |
| 2026-04-22 21:47 | 43.73605 | -81.66460 | 4065 ft | 125 kts | 194° |
| 2026-04-22 21:47 | 43.72757 | -81.66572 | 4069 ft | 121 kts | 193° |
| 2026-04-22 21:48 | 43.71934 | -81.66686 | 4064 ft | 117 kts | 195° |
| 2026-04-22 21:48 | 43.71144 | -81.66796 | 4070 ft | 113 kts | 194° |
| 2026-04-22 21:48 | 43.70352 | -81.66912 | 4081 ft | 118 kts | 194° |
| 2026-04-22 21:48 | 43.69547 | -81.67021 | 4066 ft | 114 kts | 194° |
| 2026-04-22 21:49 | 43.68749 | -81.67137 | 4071 ft | 117 kts | 196° |
| 2026-04-22 21:49 | 43.67951 | -81.67239 | 4068 ft | 113 kts | 194° |
| 2026-04-22 21:49 | 43.67152 | -81.67354 | 4089 ft | 121 kts | 195° |
| 2026-04-22 21:49 | 43.66309 | -81.67483 | 4070 ft | 119 kts | 194° |
| 2026-04-22 21:50 | 43.65499 | -81.67582 | 4065 ft | 115 kts | 195° |
| 2026-04-22 21:50 | 43.64691 | -81.67671 | 4085 ft | 120 kts | 196° |
| 2026-04-22 21:50 | 43.63848 | -81.67802 | 4076 ft | 120 kts | 193° |
| 2026-04-22 21:50 | 43.63010 | -81.67940 | 4088 ft | 124 kts | 194° |
| 2026-04-22 21:51 | 43.62144 | -81.68055 | 4068 ft | 123 kts | 194° |
| 2026-04-22 21:51 | 43.61296 | -81.68171 | 4063 ft | 123 kts | 194° |
| 2026-04-22 21:51 | 43.60446 | -81.68277 | 4067 ft | 122 kts | 193° |
| 2026-04-22 21:52 | 43.58835 | -81.68507 | 4068 ft | 113 kts | 195° |
| 2026-04-22 21:52 | 43.58058 | -81.68614 | 4068 ft | 112 kts | 195° |
| 2026-04-22 21:52 | 43.57294 | -81.68721 | 4067 ft | 111 kts | 195° |
| 2026-04-22 21:52 | 43.56519 | -81.68828 | 4067 ft | 110 kts | 195° |
| 2026-04-22 21:53 | 43.55757 | -81.68934 | 4066 ft | 110 kts | 195° |
| 2026-04-22 21:53 | 43.54980 | -81.69033 | 4103 ft | 110 kts | 191° |
| 2026-04-22 21:53 | 43.54200 | -81.69143 | 4068 ft | 119 kts | 197° |
| 2026-04-22 21:53 | 43.53377 | -81.69279 | 4089 ft | 118 kts | 194° |
| 2026-04-22 21:54 | 43.52551 | -81.69381 | 4075 ft | 123 kts | 193° |
| 2026-04-22 21:54 | 43.51718 | -81.69497 | 4066 ft | 117 kts | 193° |
| 2026-04-22 21:54 | 43.50922 | -81.69605 | 4079 ft | 114 kts | 194° |
| 2026-04-22 21:54 | 43.50110 | -81.69718 | 4067 ft | 119 kts | 193° |
| 2026-04-22 21:55 | 43.49279 | -81.69831 | 4081 ft | 121 kts | 193° |
| 2026-04-22 21:55 | 43.48436 | -81.69942 | 4083 ft | 121 kts | 194° |
| 2026-04-22 21:55 | 43.47605 | -81.70067 | 4077 ft | 120 kts | 193° |
| 2026-04-22 21:55 | 43.46776 | -81.70179 | 4081 ft | 119 kts | 193° |
| 2026-04-22 21:56 | 43.45949 | -81.70293 | 4080 ft | 119 kts | 193° |
| 2026-04-22 21:56 | 43.45126 | -81.70407 | 4075 ft | 118 kts | 193° |
| 2026-04-22 21:56 | 43.44307 | -81.70517 | 4074 ft | 118 kts | 193° |
| 2026-04-22 21:56 | 43.43499 | -81.70627 | 4078 ft | 117 kts | 194° |
| 2026-04-22 21:57 | 43.42684 | -81.70742 | 4072 ft | 117 kts | 193° |
| 2026-04-22 21:57 | 43.41885 | -81.70852 | 4066 ft | 113 kts | 194° |
| 2026-04-22 21:57 | 43.41112 | -81.70955 | 4067 ft | 110 kts | 193° |
| 2026-04-22 21:57 | 43.40359 | -81.71059 | 4073 ft | 108 kts | 194° |
| 2026-04-22 21:58 | 43.39596 | -81.71146 | 4068 ft | 110 kts | 198° |
| 2026-04-22 21:58 | 43.38827 | -81.71287 | 4079 ft | 114 kts | 193° |
| 2026-04-22 21:58 | 43.38036 | -81.71386 | 4114 ft | 106 kts | 195° |
| 2026-04-22 21:58 | 43.37261 | -81.71494 | 4065 ft | 114 kts | 195° |
| 2026-04-22 21:59 | 43.36567 | -81.71890 | 4087 ft | 109 kts | 215° |
| 2026-04-22 21:59 | 43.35858 | -81.72346 | 4090 ft | 114 kts | 214° |
| 2026-04-22 21:59 | 43.35140 | -81.72797 | 4072 ft | 112 kts | 214° |
| 2026-04-22 21:59 | 43.34437 | -81.73252 | 4072 ft | 112 kts | 212° |
| 2026-04-22 22:00 | 43.33734 | -81.73699 | 4065 ft | 110 kts | 214° |
| 2026-04-22 22:00 | 43.33036 | -81.74163 | 4074 ft | 115 kts | 211° |
| 2026-04-22 22:00 | 43.32303 | -81.74621 | 4073 ft | 114 kts | 214° |
| 2026-04-22 22:00 | 43.31599 | -81.75074 | 4074 ft | 111 kts | 212° |
| 2026-04-22 22:01 | 43.30906 | -81.75525 | 4086 ft | 111 kts | 213° |
| 2026-04-22 22:01 | 43.30197 | -81.75986 | 4086 ft | 115 kts | 212° |
| 2026-04-22 22:01 | 43.29479 | -81.76451 | 4082 ft | 114 kts | 212° |
| 2026-04-22 22:01 | 43.28756 | -81.76902 | 4087 ft | 116 kts | 213° |
| 2026-04-22 22:02 | 43.28020 | -81.77396 | 4072 ft | 117 kts | 212° |
| 2026-04-22 22:02 | 43.27295 | -81.77849 | 4067 ft | 112 kts | 213° |
| 2026-04-22 22:02 | 43.26589 | -81.78306 | 4081 ft | 115 kts | 212° |
| 2026-04-22 22:02 | 43.25862 | -81.78777 | 4076 ft | 116 kts | 213° |
| 2026-04-22 22:03 | 43.25134 | -81.79243 | 4074 ft | 116 kts | 212° |
| 2026-04-22 22:03 | 43.24403 | -81.79713 | 4079 ft | 117 kts | 212° |
| 2026-04-22 22:03 | 43.23671 | -81.80184 | 4075 ft | 116 kts | 212° |
| 2026-04-22 22:03 | 43.22949 | -81.80643 | 4066 ft | 113 kts | 212° |
| 2026-04-22 22:04 | 43.22263 | -81.81087 | 4076 ft | 107 kts | 213° |
| 2026-04-22 22:04 | 43.21581 | -81.81530 | 4081 ft | 111 kts | 213° |
| 2026-04-22 22:04 | 43.20890 | -81.81969 | 4079 ft | 108 kts | 213° |
| 2026-04-22 22:04 | 43.20200 | -81.82416 | 4081 ft | 112 kts | 211° |
| 2026-04-22 22:05 | 43.19491 | -81.82874 | 4082 ft | 114 kts | 213° |
| 2026-04-22 22:05 | 43.18768 | -81.83329 | 4088 ft | 114 kts | 212° |
| 2026-04-22 22:05 | 43.18054 | -81.83796 | 4078 ft | 112 kts | 212° |
| 2026-04-22 22:05 | 43.17338 | -81.84250 | 4081 ft | 115 kts | 212° |
| 2026-04-22 22:06 | 43.16623 | -81.84712 | 4071 ft | 114 kts | 214° |
| 2026-04-22 22:06 | 43.15909 | -81.85163 | 4084 ft | 114 kts | 212° |
| 2026-04-22 22:06 | 43.15185 | -81.85631 | 4086 ft | 116 kts | 212° |
| 2026-04-22 22:06 | 43.14452 | -81.86101 | 4088 ft | 117 kts | 212° |
| 2026-04-22 22:07 | 43.13713 | -81.86576 | 4068 ft | 117 kts | 212° |
| 2026-04-22 22:07 | 43.12980 | -81.87044 | 4050 ft | 115 kts | 211° |
| 2026-04-22 22:07 | 43.12285 | -81.87494 | 4068 ft | 107 kts | 212° |
| 2026-04-22 22:07 | 43.11611 | -81.87913 | 4063 ft | 105 kts | 212° |
| 2026-04-22 22:08 | 43.10947 | -81.88342 | 4077 ft | 107 kts | 212° |
| 2026-04-22 22:08 | 43.10264 | -81.88781 | 4079 ft | 110 kts | 212° |
| 2026-04-22 22:08 | 43.09574 | -81.89218 | 4074 ft | 108 kts | 212° |
| 2026-04-22 22:08 | 43.08894 | -81.89659 | 4077 ft | 109 kts | 213° |
| 2026-04-22 22:09 | 43.08208 | -81.90097 | 4078 ft | 109 kts | 212° |
| 2026-04-22 22:09 | 43.07519 | -81.90535 | 4078 ft | 110 kts | 212° |
| 2026-04-22 22:09 | 43.06828 | -81.90978 | 4082 ft | 110 kts | 212° |
| 2026-04-22 22:09 | 43.06132 | -81.91422 | 4075 ft | 110 kts | 213° |